sensor_id;sensor_type;location;lat;lon;timestamp;temperature;humidity
5466;DHT22;2755;50.728;7.108;2023-09-30T00:01:41;12.50;99.90
5466;DHT22;2755;50.728;7.108;2023-09-30T00:04:06;11.80;99.90
5466;DHT22;2755;50.728;7.108;2023-09-30T00:06:32;12.30;99.90
5466;DHT22;2755;50.728;7.108;2023-09-30T00:08:58;12.20;99.90
5466;DHT22;2755;50.728;7.108;2023-09-30T00:11:23;12.00;99.90
5466;DHT22;2755;50.728;7.108;2023-09-30T00:16:15;12.30;99.90
5466;DHT22;2755;50.728;7.108;2023-09-30T00:18:43;12.10;99.90
5466;DHT22;2755;50.728;7.108;2023-09-30T00:21:08;11.70;99.90
5466;DHT22;2755;50.728;7.108;2023-09-30T00:23:34;12.30;99.90
5466;DHT22;2755;50.728;7.108;2023-09-30T00:26:00;12.50;99.90
5466;DHT22;2755;50.728;7.108;2023-09-30T00:28:26;11.90;99.90
5466;DHT22;2755;50.728;7.108;2023-09-30T00:30:51;12.10;99.90
5466;DHT22;2755;50.728;7.108;2023-09-30T00:33:17;11.90;99.90
5466;DHT22;2755;50.728;7.108;2023-09-30T00:35:43;11.70;99.90
5466;DHT22;2755;50.728;7.108;2023-09-30T00:38:08;11.90;99.90
5466;DHT22;2755;50.728;7.108;2023-09-30T00:40:35;12.40;99.90
5466;DHT22;2755;50.728;7.108;2023-09-30T00:45:28;12.60;99.90
5466;DHT22;2755;50.728;7.108;2023-09-30T00:47:53;12.10;99.90
5466;DHT22;2755;50.728;7.108;2023-09-30T00:50:21;11.90;99.90
5466;DHT22;2755;50.728;7.108;2023-09-30T00:55:13;12.00;99.90
5466;DHT22;2755;50.728;7.108;2023-09-30T00:57:39;12.20;99.90
5466;DHT22;2755;50.728;7.108;2023-09-30T01:00:05;12.00;99.90
5466;DHT22;2755;50.728;7.108;2023-09-30T01:02:31;12.20;99.90
5466;DHT22;2755;50.728;7.108;2023-09-30T01:04:57;12.10;99.90
5466;DHT22;2755;50.728;7.108;2023-09-30T01:07:23;12.80;99.90
5466;DHT22;2755;50.728;7.108;2023-09-30T01:09:50;12.10;99.90
5466;DHT22;2755;50.728;7.108;2023-09-30T01:12:16;12.70;99.90
5466;DHT22;2755;50.728;7.108;2023-09-30T01:14:41;12.00;99.90
5466;DHT22;2755;50.728;7.108;2023-09-30T01:17:08;12.00;99.90
5466;DHT22;2755;50.728;7.108;2023-09-30T01:19:41;12.40;99.90
5466;DHT22;2755;50.728;7.108;2023-09-30T01:22:08;12.70;99.90
5466;DHT22;2755;50.728;7.108;2023-09-30T01:24:39;12.50;99.90
5466;DHT22;2755;50.728;7.108;2023-09-30T01:27:05;12.00;99.90
5466;DHT22;2755;50.728;7.108;2023-09-30T01:31:57;11.70;99.90
5466;DHT22;2755;50.728;7.108;2023-09-30T01:34:23;12.20;99.90
5466;DHT22;2755;50.728;7.108;2023-09-30T01:36:49;12.00;99.90
5466;DHT22;2755;50.728;7.108;2023-09-30T01:39:14;12.30;99.90
5466;DHT22;2755;50.728;7.108;2023-09-30T01:41:41;12.10;99.90
5466;DHT22;2755;50.728;7.108;2023-09-30T01:44:07;12.10;99.90
5466;DHT22;2755;50.728;7.108;2023-09-30T01:46:33;12.40;99.90
5466;DHT22;2755;50.728;7.108;2023-09-30T01:48:59;11.60;99.90
5466;DHT22;2755;50.728;7.108;2023-09-30T01:53:50;11.90;99.90
5466;DHT22;2755;50.728;7.108;2023-09-30T01:56:16;12.20;99.90
5466;DHT22;2755;50.728;7.108;2023-09-30T01:58:42;12.10;99.90
5466;DHT22;2755;50.728;7.108;2023-09-30T02:01:08;12.00;99.90
5466;DHT22;2755;50.728;7.108;2023-09-30T02:03:34;12.50;99.90
5466;DHT22;2755;50.728;7.108;2023-09-30T02:06:00;12.20;99.90
5466;DHT22;2755;50.728;7.108;2023-09-30T02:10:51;12.40;99.90
5466;DHT22;2755;50.728;7.108;2023-09-30T02:13:17;12.90;99.90
5466;DHT22;2755;50.728;7.108;2023-09-30T02:15:43;13.10;99.90
5466;DHT22;2755;50.728;7.108;2023-09-30T02:20:36;12.20;99.90
5466;DHT22;2755;50.728;7.108;2023-09-30T02:25:31;12.70;99.90
5466;DHT22;2755;50.728;7.108;2023-09-30T02:27:57;12.30;99.90
5466;DHT22;2755;50.728;7.108;2023-09-30T02:30:23;12.20;99.90
5466;DHT22;2755;50.728;7.108;2023-09-30T02:32:49;12.30;99.90
5466;DHT22;2755;50.728;7.108;2023-09-30T02:37:41;13.40;99.90
5466;DHT22;2755;50.728;7.108;2023-09-30T02:42:35;12.60;99.90
5466;DHT22;2755;50.728;7.108;2023-09-30T02:45:02;12.30;99.90
5466;DHT22;2755;50.728;7.108;2023-09-30T02:47:28;12.80;99.90
5466;DHT22;2755;50.728;7.108;2023-09-30T02:52:21;12.40;99.90
5466;DHT22;2755;50.728;7.108;2023-09-30T02:54:46;12.50;99.90
5466;DHT22;2755;50.728;7.108;2023-09-30T02:57:12;12.50;99.90
5466;DHT22;2755;50.728;7.108;2023-09-30T02:59:37;12.30;99.90
5466;DHT22;2755;50.728;7.108;2023-09-30T03:06:56;12.40;99.90
5466;DHT22;2755;50.728;7.108;2023-09-30T03:09:22;12.50;99.90
5466;DHT22;2755;50.728;7.108;2023-09-30T03:11:47;11.70;99.90
5466;DHT22;2755;50.728;7.108;2023-09-30T03:14:13;12.60;99.90
5466;DHT22;2755;50.728;7.108;2023-09-30T03:16:39;12.10;99.90
5466;DHT22;2755;50.728;7.108;2023-09-30T03:19:07;12.10;99.90
5466;DHT22;2755;50.728;7.108;2023-09-30T03:21:34;12.30;99.90
5466;DHT22;2755;50.728;7.108;2023-09-30T03:24:03;11.90;99.90
5466;DHT22;2755;50.728;7.108;2023-09-30T03:26:30;12.80;99.90
5466;DHT22;2755;50.728;7.108;2023-09-30T03:28:56;12.10;99.90
5466;DHT22;2755;50.728;7.108;2023-09-30T03:31:22;12.00;99.90
5466;DHT22;2755;50.728;7.108;2023-09-30T03:33:49;12.20;99.90
5466;DHT22;2755;50.728;7.108;2023-09-30T03:36:15;11.90;99.90
5466;DHT22;2755;50.728;7.108;2023-09-30T03:38:42;11.90;99.90
5466;DHT22;2755;50.728;7.108;2023-09-30T03:43:34;11.70;99.90
5466;DHT22;2755;50.728;7.108;2023-09-30T03:46:02;11.30;99.90
5466;DHT22;2755;50.728;7.108;2023-09-30T03:48:28;12.20;99.90
5466;DHT22;2755;50.728;7.108;2023-09-30T03:50:53;12.40;99.90
5466;DHT22;2755;50.728;7.108;2023-09-30T03:53:19;12.30;99.90
5466;DHT22;2755;50.728;7.108;2023-09-30T03:55:45;12.00;99.90
5466;DHT22;2755;50.728;7.108;2023-09-30T03:58:11;11.80;99.90
5466;DHT22;2755;50.728;7.108;2023-09-30T04:00:38;12.00;99.90
5466;DHT22;2755;50.728;7.108;2023-09-30T04:03:05;11.60;99.90
5466;DHT22;2755;50.728;7.108;2023-09-30T04:08:02;12.10;99.90
5466;DHT22;2755;50.728;7.108;2023-09-30T04:10:27;11.90;99.90
5466;DHT22;2755;50.728;7.108;2023-09-30T04:12:55;11.50;99.90
5466;DHT22;2755;50.728;7.108;2023-09-30T04:17:48;11.60;99.90
5466;DHT22;2755;50.728;7.108;2023-09-30T04:22:48;11.60;99.90
5466;DHT22;2755;50.728;7.108;2023-09-30T04:25:15;11.70;99.90
5466;DHT22;2755;50.728;7.108;2023-09-30T04:27:42;11.60;99.90
5466;DHT22;2755;50.728;7.108;2023-09-30T04:30:08;11.50;99.90
5466;DHT22;2755;50.728;7.108;2023-09-30T04:32:37;11.60;99.90
5466;DHT22;2755;50.728;7.108;2023-09-30T04:35:04;11.70;99.90
5466;DHT22;2755;50.728;7.108;2023-09-30T04:37:30;11.50;99.90
5466;DHT22;2755;50.728;7.108;2023-09-30T04:39:55;11.40;99.90
5466;DHT22;2755;50.728;7.108;2023-09-30T04:42:21;11.70;99.90
5466;DHT22;2755;50.728;7.108;2023-09-30T04:44:47;10.70;99.90
5466;DHT22;2755;50.728;7.108;2023-09-30T04:47:12;11.40;99.90
5466;DHT22;2755;50.728;7.108;2023-09-30T04:49:38;12.00;99.90
5466;DHT22;2755;50.728;7.108;2023-09-30T04:52:03;11.30;99.90
5466;DHT22;2755;50.728;7.108;2023-09-30T04:54:32;11.50;99.90
5466;DHT22;2755;50.728;7.108;2023-09-30T04:57:01;11.40;99.90
5466;DHT22;2755;50.728;7.108;2023-09-30T04:59:27;11.50;99.90
5466;DHT22;2755;50.728;7.108;2023-09-30T05:04:20;11.50;99.90
5466;DHT22;2755;50.728;7.108;2023-09-30T05:09:11;11.30;99.90
5466;DHT22;2755;50.728;7.108;2023-09-30T05:11:37;11.30;99.90
5466;DHT22;2755;50.728;7.108;2023-09-30T05:14:03;11.60;99.90
5466;DHT22;2755;50.728;7.108;2023-09-30T05:16:30;11.40;99.90
5466;DHT22;2755;50.728;7.108;2023-09-30T05:18:57;11.60;99.90
5466;DHT22;2755;50.728;7.108;2023-09-30T05:21:22;11.40;99.90
5466;DHT22;2755;50.728;7.108;2023-09-30T05:23:48;11.60;99.90
5466;DHT22;2755;50.728;7.108;2023-09-30T05:26:15;11.60;99.90
5466;DHT22;2755;50.728;7.108;2023-09-30T05:31:08;11.00;99.90
5466;DHT22;2755;50.728;7.108;2023-09-30T05:33:33;11.00;99.90
5466;DHT22;2755;50.728;7.108;2023-09-30T05:36:01;10.30;99.90
5466;DHT22;2755;50.728;7.108;2023-09-30T05:38:28;11.10;99.90
5466;DHT22;2755;50.728;7.108;2023-09-30T05:40:54;11.30;99.90
5466;DHT22;2755;50.728;7.108;2023-09-30T05:43:20;11.00;99.90
5466;DHT22;2755;50.728;7.108;2023-09-30T05:45:47;11.00;99.90
5466;DHT22;2755;50.728;7.108;2023-09-30T05:48:20;11.30;99.90
5466;DHT22;2755;50.728;7.108;2023-09-30T05:50:46;10.20;99.90
5466;DHT22;2755;50.728;7.108;2023-09-30T05:53:12;11.40;99.90
5466;DHT22;2755;50.728;7.108;2023-09-30T05:55:39;11.30;99.90
5466;DHT22;2755;50.728;7.108;2023-09-30T05:58:14;11.00;99.90
5466;DHT22;2755;50.728;7.108;2023-09-30T06:00:42;11.20;99.90
5466;DHT22;2755;50.728;7.108;2023-09-30T06:03:08;11.40;99.90
5466;DHT22;2755;50.728;7.108;2023-09-30T06:05:39;11.30;99.90
5466;DHT22;2755;50.728;7.108;2023-09-30T06:08:07;11.90;99.90
5466;DHT22;2755;50.728;7.108;2023-09-30T06:10:34;11.40;99.90
5466;DHT22;2755;50.728;7.108;2023-09-30T06:13:01;11.40;99.90
5466;DHT22;2755;50.728;7.108;2023-09-30T06:15:28;11.20;99.90
5466;DHT22;2755;50.728;7.108;2023-09-30T06:17:54;11.40;99.90
5466;DHT22;2755;50.728;7.108;2023-09-30T06:20:21;11.20;99.90
5466;DHT22;2755;50.728;7.108;2023-09-30T06:22:48;11.50;99.90
5466;DHT22;2755;50.728;7.108;2023-09-30T06:25:17;11.40;99.90
5466;DHT22;2755;50.728;7.108;2023-09-30T06:27:47;11.40;99.90
5466;DHT22;2755;50.728;7.108;2023-09-30T06:30:14;11.50;99.90
5466;DHT22;2755;50.728;7.108;2023-09-30T06:32:41;10.60;99.90
5466;DHT22;2755;50.728;7.108;2023-09-30T06:35:08;11.90;99.90
5466;DHT22;2755;50.728;7.108;2023-09-30T06:37:36;11.90;99.90
5466;DHT22;2755;50.728;7.108;2023-09-30T06:40:04;11.80;99.90
5466;DHT22;2755;50.728;7.108;2023-09-30T06:44:57;12.10;99.90
5466;DHT22;2755;50.728;7.108;2023-09-30T06:47:23;12.60;99.90
5466;DHT22;2755;50.728;7.108;2023-09-30T06:49:49;12.00;99.90
5466;DHT22;2755;50.728;7.108;2023-09-30T06:52:15;12.40;99.90
5466;DHT22;2755;50.728;7.108;2023-09-30T06:54:40;12.50;99.90
5466;DHT22;2755;50.728;7.108;2023-09-30T06:57:06;12.30;99.90
5466;DHT22;2755;50.728;7.108;2023-09-30T06:59:33;12.90;99.90
5466;DHT22;2755;50.728;7.108;2023-09-30T07:06:53;12.60;99.90
5466;DHT22;2755;50.728;7.108;2023-09-30T07:09:18;13.00;99.90
5466;DHT22;2755;50.728;7.108;2023-09-30T07:14:11;12.90;99.90
5466;DHT22;2755;50.728;7.108;2023-09-30T07:16:37;13.40;99.90
5466;DHT22;2755;50.728;7.108;2023-09-30T07:19:03;13.80;99.90
5466;DHT22;2755;50.728;7.108;2023-09-30T07:21:29;14.40;99.90
5466;DHT22;2755;50.728;7.108;2023-09-30T07:23:54;14.40;99.90
5466;DHT22;2755;50.728;7.108;2023-09-30T07:26:26;15.00;99.90
5466;DHT22;2755;50.728;7.108;2023-09-30T07:28:53;15.00;97.10
5466;DHT22;2755;50.728;7.108;2023-09-30T07:31:19;15.30;86.70
5466;DHT22;2755;50.728;7.108;2023-09-30T07:33:45;14.90;91.60
5466;DHT22;2755;50.728;7.108;2023-09-30T07:36:13;15.40;75.90
5466;DHT22;2755;50.728;7.108;2023-09-30T07:38:38;15.90;79.20
5466;DHT22;2755;50.728;7.108;2023-09-30T07:41:04;16.40;55.10
5466;DHT22;2755;50.728;7.108;2023-09-30T07:43:30;16.60;56.50
5466;DHT22;2755;50.728;7.108;2023-09-30T07:45:56;16.70;44.60
5466;DHT22;2755;50.728;7.108;2023-09-30T07:48:21;16.90;29.50
5466;DHT22;2755;50.728;7.108;2023-09-30T07:50:47;17.50;29.20
5466;DHT22;2755;50.728;7.108;2023-09-30T07:53:13;16.90;23.90
5466;DHT22;2755;50.728;7.108;2023-09-30T07:55:38;18.30;28.30
5466;DHT22;2755;50.728;7.108;2023-09-30T07:58:05;17.50;23.50
5466;DHT22;2755;50.728;7.108;2023-09-30T08:00:33;18.30;19.70
5466;DHT22;2755;50.728;7.108;2023-09-30T08:02:59;18.40;6.10
5466;DHT22;2755;50.728;7.108;2023-09-30T08:05:26;19.40;3.00
5466;DHT22;2755;50.728;7.108;2023-09-30T08:07:52;18.60;1.00
5466;DHT22;2755;50.728;7.108;2023-09-30T08:15:15;17.50;7.90
5466;DHT22;2755;50.728;7.108;2023-09-30T08:17:41;18.40;9.10
5466;DHT22;2755;50.728;7.108;2023-09-30T08:20:07;18.90;7.90
5466;DHT22;2755;50.728;7.108;2023-09-30T08:22:34;18.50;5.60
5466;DHT22;2755;50.728;7.108;2023-09-30T08:24:59;18.80;6.60
5466;DHT22;2755;50.728;7.108;2023-09-30T08:27:25;18.10;7.80
5466;DHT22;2755;50.728;7.108;2023-09-30T08:29:51;18.90;5.10
5466;DHT22;2755;50.728;7.108;2023-09-30T08:34:43;18.80;4.50
5466;DHT22;2755;50.728;7.108;2023-09-30T08:37:09;19.30;7.40
5466;DHT22;2755;50.728;7.108;2023-09-30T08:39:38;20.10;2.90
5466;DHT22;2755;50.728;7.108;2023-09-30T08:42:09;19.70;1.70
5466;DHT22;2755;50.728;7.108;2023-09-30T08:44:37;19.90;1.00
5466;DHT22;2755;50.728;7.108;2023-09-30T08:47:06;20.30;1.00
5466;DHT22;2755;50.728;7.108;2023-09-30T08:49:36;20.40;1.00
5466;DHT22;2755;50.728;7.108;2023-09-30T08:52:04;21.50;1.00
5466;DHT22;2755;50.728;7.108;2023-09-30T08:54:31;21.30;1.00
5466;DHT22;2755;50.728;7.108;2023-09-30T08:56:57;21.10;1.00
5466;DHT22;2755;50.728;7.108;2023-09-30T08:59:24;20.90;1.00
5466;DHT22;2755;50.728;7.108;2023-09-30T09:01:51;20.50;1.00
5466;DHT22;2755;50.728;7.108;2023-09-30T09:04:17;20.20;1.00
5466;DHT22;2755;50.728;7.108;2023-09-30T09:06:43;20.30;1.00
5466;DHT22;2755;50.728;7.108;2023-09-30T09:09:19;19.90;1.00
5466;DHT22;2755;50.728;7.108;2023-09-30T09:11:47;20.30;1.00
5466;DHT22;2755;50.728;7.108;2023-09-30T09:14:13;19.90;1.00
5466;DHT22;2755;50.728;7.108;2023-09-30T09:17:00;20.30;1.00
5466;DHT22;2755;50.728;7.108;2023-09-30T09:19:25;20.30;1.00
5466;DHT22;2755;50.728;7.108;2023-09-30T09:21:55;20.40;1.00
5466;DHT22;2755;50.728;7.108;2023-09-30T09:24:32;20.50;1.00
5466;DHT22;2755;50.728;7.108;2023-09-30T09:29:33;20.00;1.00
5466;DHT22;2755;50.728;7.108;2023-09-30T09:32:12;18.80;1.00
5466;DHT22;2755;50.728;7.108;2023-09-30T09:34:38;19.60;1.00
5466;DHT22;2755;50.728;7.108;2023-09-30T09:39:57;18.50;1.00
5466;DHT22;2755;50.728;7.108;2023-09-30T09:42:31;18.00;1.00
5466;DHT22;2755;50.728;7.108;2023-09-30T09:45:02;18.40;1.00
5466;DHT22;2755;50.728;7.108;2023-09-30T09:47:29;17.90;1.00
5466;DHT22;2755;50.728;7.108;2023-09-30T09:49:57;18.10;1.00
5466;DHT22;2755;50.728;7.108;2023-09-30T09:54:50;19.00;1.00
5466;DHT22;2755;50.728;7.108;2023-09-30T09:57:17;19.10;1.00
5466;DHT22;2755;50.728;7.108;2023-09-30T09:59:44;19.80;1.00
5466;DHT22;2755;50.728;7.108;2023-09-30T10:02:13;20.40;1.00
5466;DHT22;2755;50.728;7.108;2023-09-30T10:07:07;21.10;1.00
5466;DHT22;2755;50.728;7.108;2023-09-30T10:09:35;21.30;1.00
5466;DHT22;2755;50.728;7.108;2023-09-30T10:12:01;22.00;1.00
5466;DHT22;2755;50.728;7.108;2023-09-30T10:14:33;22.50;1.00
5466;DHT22;2755;50.728;7.108;2023-09-30T10:17:01;22.20;1.00
5466;DHT22;2755;50.728;7.108;2023-09-30T10:19:27;22.50;1.00
5466;DHT22;2755;50.728;7.108;2023-09-30T10:24:46;22.90;1.00
5466;DHT22;2755;50.728;7.108;2023-09-30T10:35:19;23.70;1.00
5466;DHT22;2755;50.728;7.108;2023-09-30T10:37:46;23.30;1.00
5466;DHT22;2755;50.728;7.108;2023-09-30T10:40:30;24.00;1.00
5466;DHT22;2755;50.728;7.108;2023-09-30T10:42:59;23.70;1.00
5466;DHT22;2755;50.728;7.108;2023-09-30T10:48:32;24.10;1.00
5466;DHT22;2755;50.728;7.108;2023-09-30T10:51:15;24.60;1.00
5466;DHT22;2755;50.728;7.108;2023-09-30T10:53:45;24.80;1.00
5466;DHT22;2755;50.728;7.108;2023-09-30T10:56:12;23.90;1.00
5466;DHT22;2755;50.728;7.108;2023-09-30T11:01:12;23.70;1.00
5466;DHT22;2755;50.728;7.108;2023-09-30T11:03:39;24.60;1.00
5466;DHT22;2755;50.728;7.108;2023-09-30T11:06:05;23.40;1.00
5466;DHT22;2755;50.728;7.108;2023-09-30T11:08:31;23.10;1.00
5466;DHT22;2755;50.728;7.108;2023-09-30T11:10:57;22.80;1.00
5466;DHT22;2755;50.728;7.108;2023-09-30T11:13:23;22.80;1.00
5466;DHT22;2755;50.728;7.108;2023-09-30T11:16:03;22.70;1.00
5466;DHT22;2755;50.728;7.108;2023-09-30T11:21:08;22.80;1.00
5466;DHT22;2755;50.728;7.108;2023-09-30T11:23:35;22.80;1.00
5466;DHT22;2755;50.728;7.108;2023-09-30T11:26:01;23.10;1.00
5466;DHT22;2755;50.728;7.108;2023-09-30T11:28:36;23.20;1.00
5466;DHT22;2755;50.728;7.108;2023-09-30T11:31:02;23.70;1.00
5466;DHT22;2755;50.728;7.108;2023-09-30T11:33:29;24.00;1.00
5466;DHT22;2755;50.728;7.108;2023-09-30T11:36:02;23.60;1.00
5466;DHT22;2755;50.728;7.108;2023-09-30T11:38:29;23.80;1.00
5466;DHT22;2755;50.728;7.108;2023-09-30T11:41:05;24.70;1.00
5466;DHT22;2755;50.728;7.108;2023-09-30T11:43:33;24.70;1.00
5466;DHT22;2755;50.728;7.108;2023-09-30T11:46:07;24.60;1.00
5466;DHT22;2755;50.728;7.108;2023-09-30T11:48:38;24.80;1.00
5466;DHT22;2755;50.728;7.108;2023-09-30T11:51:04;24.50;1.00
5466;DHT22;2755;50.728;7.108;2023-09-30T11:53:31;24.40;1.00
5466;DHT22;2755;50.728;7.108;2023-09-30T11:55:58;24.20;1.00
5466;DHT22;2755;50.728;7.108;2023-09-30T11:58:34;24.40;1.00
5466;DHT22;2755;50.728;7.108;2023-09-30T12:03:26;23.90;1.00
5466;DHT22;2755;50.728;7.108;2023-09-30T12:05:55;23.90;1.00
5466;DHT22;2755;50.728;7.108;2023-09-30T12:08:22;23.40;1.00
5466;DHT22;2755;50.728;7.108;2023-09-30T12:10:48;22.90;1.00
5466;DHT22;2755;50.728;7.108;2023-09-30T12:13:14;22.50;1.00
5466;DHT22;2755;50.728;7.108;2023-09-30T12:15:41;22.40;1.00
5466;DHT22;2755;50.728;7.108;2023-09-30T12:18:06;22.30;1.00
5466;DHT22;2755;50.728;7.108;2023-09-30T12:20:32;22.00;1.00
5466;DHT22;2755;50.728;7.108;2023-09-30T12:22:58;21.60;1.00
5466;DHT22;2755;50.728;7.108;2023-09-30T12:25:24;22.20;1.00
5466;DHT22;2755;50.728;7.108;2023-09-30T12:30:16;20.50;1.00
5466;DHT22;2755;50.728;7.108;2023-09-30T12:35:11;20.40;1.00
5466;DHT22;2755;50.728;7.108;2023-09-30T12:40:05;20.00;1.00
5466;DHT22;2755;50.728;7.108;2023-09-30T12:45:00;20.00;1.00
5466;DHT22;2755;50.728;7.108;2023-09-30T12:47:26;20.00;1.00
5466;DHT22;2755;50.728;7.108;2023-09-30T12:49:52;18.50;1.00
5466;DHT22;2755;50.728;7.108;2023-09-30T12:54:45;19.40;1.00
5466;DHT22;2755;50.728;7.108;2023-09-30T12:57:12;19.60;1.00
5466;DHT22;2755;50.728;7.108;2023-09-30T12:59:39;19.90;1.00
5466;DHT22;2755;50.728;7.108;2023-09-30T13:02:04;20.00;1.00
5466;DHT22;2755;50.728;7.108;2023-09-30T13:04:31;19.90;1.00
5466;DHT22;2755;50.728;7.108;2023-09-30T13:06:58;19.60;1.00
5466;DHT22;2755;50.728;7.108;2023-09-30T13:09:23;20.30;1.00
5466;DHT22;2755;50.728;7.108;2023-09-30T13:11:49;20.20;1.00
5466;DHT22;2755;50.728;7.108;2023-09-30T13:14:14;19.90;1.00
5466;DHT22;2755;50.728;7.108;2023-09-30T13:16:40;20.20;1.00
5466;DHT22;2755;50.728;7.108;2023-09-30T13:21:32;19.80;1.00
5466;DHT22;2755;50.728;7.108;2023-09-30T13:23:58;19.30;1.00
5466;DHT22;2755;50.728;7.108;2023-09-30T13:26:24;19.50;1.00
5466;DHT22;2755;50.728;7.108;2023-09-30T13:28:49;19.30;1.00
5466;DHT22;2755;50.728;7.108;2023-09-30T13:31:15;19.40;1.00
5466;DHT22;2755;50.728;7.108;2023-09-30T13:33:40;19.00;1.00
5466;DHT22;2755;50.728;7.108;2023-09-30T13:38:32;20.10;1.00
5466;DHT22;2755;50.728;7.108;2023-09-30T13:40:58;19.60;1.00
5466;DHT22;2755;50.728;7.108;2023-09-30T13:43:24;19.80;1.00
5466;DHT22;2755;50.728;7.108;2023-09-30T13:45:49;19.90;1.00
5466;DHT22;2755;50.728;7.108;2023-09-30T13:48:15;19.50;1.00
5466;DHT22;2755;50.728;7.108;2023-09-30T13:50:41;19.20;1.00
5466;DHT22;2755;50.728;7.108;2023-09-30T13:53:07;20.00;1.00
5466;DHT22;2755;50.728;7.108;2023-09-30T13:55:32;19.50;1.00
5466;DHT22;2755;50.728;7.108;2023-09-30T13:57:58;19.60;1.00
5466;DHT22;2755;50.728;7.108;2023-09-30T14:00:23;19.90;1.00
5466;DHT22;2755;50.728;7.108;2023-09-30T14:02:49;20.00;1.00
5466;DHT22;2755;50.728;7.108;2023-09-30T14:05:16;20.00;1.00
5466;DHT22;2755;50.728;7.108;2023-09-30T14:07:45;19.80;1.00
5466;DHT22;2755;50.728;7.108;2023-09-30T14:10:10;20.00;1.00
5466;DHT22;2755;50.728;7.108;2023-09-30T14:12:36;20.10;1.00
5466;DHT22;2755;50.728;7.108;2023-09-30T14:15:03;20.20;1.00
5466;DHT22;2755;50.728;7.108;2023-09-30T14:17:31;19.80;1.00
5466;DHT22;2755;50.728;7.108;2023-09-30T14:19:56;20.20;1.00
5466;DHT22;2755;50.728;7.108;2023-09-30T14:22:22;20.00;1.00
5466;DHT22;2755;50.728;7.108;2023-09-30T14:24:47;20.80;1.00
5466;DHT22;2755;50.728;7.108;2023-09-30T14:27:13;20.30;1.00
5466;DHT22;2755;50.728;7.108;2023-09-30T14:32:07;19.40;1.00
5466;DHT22;2755;50.728;7.108;2023-09-30T14:34:32;20.30;1.00
5466;DHT22;2755;50.728;7.108;2023-09-30T14:36:58;20.10;1.00
5466;DHT22;2755;50.728;7.108;2023-09-30T14:39:24;20.10;1.00
5466;DHT22;2755;50.728;7.108;2023-09-30T14:41:49;19.90;1.00
5466;DHT22;2755;50.728;7.108;2023-09-30T14:44:15;20.20;1.00
5466;DHT22;2755;50.728;7.108;2023-09-30T14:46:40;19.80;1.00
5466;DHT22;2755;50.728;7.108;2023-09-30T14:49:06;19.60;1.00
5466;DHT22;2755;50.728;7.108;2023-09-30T14:51:35;18.90;1.00
5466;DHT22;2755;50.728;7.108;2023-09-30T14:54:05;19.00;1.00
5466;DHT22;2755;50.728;7.108;2023-09-30T14:56:31;19.80;1.00
5466;DHT22;2755;50.728;7.108;2023-09-30T14:58:56;19.10;1.00
5466;DHT22;2755;50.728;7.108;2023-09-30T15:01:22;19.50;1.00
5466;DHT22;2755;50.728;7.108;2023-09-30T15:03:48;19.20;1.00
5466;DHT22;2755;50.728;7.108;2023-09-30T15:06:14;19.10;1.00
5466;DHT22;2755;50.728;7.108;2023-09-30T15:08:40;18.70;1.00
5466;DHT22;2755;50.728;7.108;2023-09-30T15:11:05;19.30;1.00
5466;DHT22;2755;50.728;7.108;2023-09-30T15:13:31;18.90;1.00
5466;DHT22;2755;50.728;7.108;2023-09-30T15:15:57;19.00;1.00
5466;DHT22;2755;50.728;7.108;2023-09-30T15:18:23;18.80;1.00
5466;DHT22;2755;50.728;7.108;2023-09-30T15:25:43;18.60;1.00
5466;DHT22;2755;50.728;7.108;2023-09-30T15:28:12;18.90;1.00
5466;DHT22;2755;50.728;7.108;2023-09-30T15:33:07;18.60;1.00
5466;DHT22;2755;50.728;7.108;2023-09-30T15:35:33;18.70;1.00
5466;DHT22;2755;50.728;7.108;2023-09-30T15:37:59;18.80;1.00
5466;DHT22;2755;50.728;7.108;2023-09-30T15:42:52;18.70;1.00
5466;DHT22;2755;50.728;7.108;2023-09-30T15:45:17;17.50;1.00
5466;DHT22;2755;50.728;7.108;2023-09-30T15:50:09;18.70;1.00
5466;DHT22;2755;50.728;7.108;2023-09-30T15:52:36;18.20;1.00
5466;DHT22;2755;50.728;7.108;2023-09-30T15:55:05;18.30;1.00
5466;DHT22;2755;50.728;7.108;2023-09-30T15:57:30;18.30;1.00
5466;DHT22;2755;50.728;7.108;2023-09-30T16:04:48;18.50;1.00
5466;DHT22;2755;50.728;7.108;2023-09-30T16:09:40;18.90;1.00
5466;DHT22;2755;50.728;7.108;2023-09-30T16:12:06;18.10;1.00
5466;DHT22;2755;50.728;7.108;2023-09-30T16:14:31;17.90;1.00
5466;DHT22;2755;50.728;7.108;2023-09-30T16:16:57;18.10;1.00
5466;DHT22;2755;50.728;7.108;2023-09-30T16:21:51;17.90;1.00
5466;DHT22;2755;50.728;7.108;2023-09-30T16:24:16;18.10;1.00
5466;DHT22;2755;50.728;7.108;2023-09-30T16:26:42;17.80;1.00
5466;DHT22;2755;50.728;7.108;2023-09-30T16:29:08;18.10;1.00
5466;DHT22;2755;50.728;7.108;2023-09-30T16:31:33;17.70;1.00
5466;DHT22;2755;50.728;7.108;2023-09-30T16:33:59;17.80;1.00
5466;DHT22;2755;50.728;7.108;2023-09-30T16:41:17;17.60;1.00
5466;DHT22;2755;50.728;7.108;2023-09-30T16:43:42;17.40;1.00
5466;DHT22;2755;50.728;7.108;2023-09-30T16:46:08;16.90;1.00
5466;DHT22;2755;50.728;7.108;2023-09-30T16:48:34;17.30;1.00
5466;DHT22;2755;50.728;7.108;2023-09-30T16:53:26;17.20;1.00
5466;DHT22;2755;50.728;7.108;2023-09-30T16:55:51;16.90;1.00
5466;DHT22;2755;50.728;7.108;2023-09-30T16:58:17;17.00;1.00
5466;DHT22;2755;50.728;7.108;2023-09-30T17:00:43;16.80;1.00
5466;DHT22;2755;50.728;7.108;2023-09-30T17:03:09;16.90;1.00
5466;DHT22;2755;50.728;7.108;2023-09-30T17:08:02;16.80;1.00
5466;DHT22;2755;50.728;7.108;2023-09-30T17:10:28;17.10;1.00
5466;DHT22;2755;50.728;7.108;2023-09-30T17:12:54;17.20;1.00
5466;DHT22;2755;50.728;7.108;2023-09-30T17:15:19;16.30;1.00
5466;DHT22;2755;50.728;7.108;2023-09-30T17:17:45;16.50;1.00
5466;DHT22;2755;50.728;7.108;2023-09-30T17:20:11;16.70;1.00
5466;DHT22;2755;50.728;7.108;2023-09-30T17:22:39;16.50;1.00
5466;DHT22;2755;50.728;7.108;2023-09-30T17:25:04;16.30;1.00
5466;DHT22;2755;50.728;7.108;2023-09-30T17:27:30;16.10;1.00
5466;DHT22;2755;50.728;7.108;2023-09-30T17:32:22;16.30;1.00
5466;DHT22;2755;50.728;7.108;2023-09-30T17:34:49;15.90;1.00
5466;DHT22;2755;50.728;7.108;2023-09-30T17:37:15;14.90;1.00
5466;DHT22;2755;50.728;7.108;2023-09-30T17:39:45;16.20;1.00
5466;DHT22;2755;50.728;7.108;2023-09-30T17:42:12;15.80;1.00
5466;DHT22;2755;50.728;7.108;2023-09-30T17:44:38;16.60;1.00
5466;DHT22;2755;50.728;7.108;2023-09-30T17:49:30;16.00;1.00
5466;DHT22;2755;50.728;7.108;2023-09-30T17:54:22;15.80;1.00
5466;DHT22;2755;50.728;7.108;2023-09-30T17:59:14;15.70;1.00
5466;DHT22;2755;50.728;7.108;2023-09-30T18:01:40;15.40;1.00
5466;DHT22;2755;50.728;7.108;2023-09-30T18:04:08;15.90;1.00
5466;DHT22;2755;50.728;7.108;2023-09-30T18:06:34;15.30;1.00
5466;DHT22;2755;50.728;7.108;2023-09-30T18:09:00;15.70;1.00
5466;DHT22;2755;50.728;7.108;2023-09-30T18:11:26;15.70;1.00
5466;DHT22;2755;50.728;7.108;2023-09-30T18:13:51;15.10;1.00
5466;DHT22;2755;50.728;7.108;2023-09-30T18:21:09;15.30;1.00
5466;DHT22;2755;50.728;7.108;2023-09-30T18:23:39;15.20;1.00
5466;DHT22;2755;50.728;7.108;2023-09-30T18:26:05;15.00;1.00
5466;DHT22;2755;50.728;7.108;2023-09-30T18:28:31;14.50;1.00
5466;DHT22;2755;50.728;7.108;2023-09-30T18:33:24;15.00;1.00
5466;DHT22;2755;50.728;7.108;2023-09-30T18:35:50;14.70;1.00
5466;DHT22;2755;50.728;7.108;2023-09-30T18:38:16;14.00;1.00
5466;DHT22;2755;50.728;7.108;2023-09-30T18:40:41;14.10;1.00
5466;DHT22;2755;50.728;7.108;2023-09-30T18:43:09;14.60;1.00
5466;DHT22;2755;50.728;7.108;2023-09-30T18:45:48;14.30;3.90
5466;DHT22;2755;50.728;7.108;2023-09-30T18:48:14;14.50;1.80
5466;DHT22;2755;50.728;7.108;2023-09-30T18:50:41;14.60;4.60
5466;DHT22;2755;50.728;7.108;2023-09-30T18:53:08;14.10;4.40